Oval Lp No.11 — JL6306 — position and weather

sailwx.info

Track history (hours):
 
Tides and Currents Weather Stations Pressure Air Temp Water Temp Dewpoint Dewpoint Depression Visibility Wind Speed Wind Dir Waves Ship Positions

Oval Lp No.11

Last reported at 2014-Sep-19 04:33 UTC. Time now 2014-Sep-19 05:51 UTC.
Position N 34°26' E 135°07'.

Length 67 m; draft 3.6 m.

Type: Ship (hazmat cat A). MMSI: 431500366.

Date/timePositionNaut miles runAvg speedWind from/ knotsBaromVisibWave heightAir tempDewpointWater temp
2014-Sep-19 04:33N 34°26' E 135°07'1312.6
2014-Sep-19 03:32N 34°34' E 135°20'5 2.2
2014-Sep-19 01:18N 34°34' E 135°26'0 0.0
2014-Sep-18 23:33N 34°34' E 135°26'7 7.3
2014-Sep-18 22:33N 34°32' E 135°17'1111.1
2014-Sep-18 21:33N 34°24' E 135°08'1110.5
2014-Sep-18 20:30N 34°15' E 134°60'1111.6
2014-Sep-18 19:32N 34°04' E 135°01'  
2014-Sep-16 08:16N 33°58' E 135°00'912.0
2014-Sep-16 07:33N 34°07' E 134°59'1211.5
2014-Sep-16 06:33N 34°18' E 134°58'1110.8
2014-Sep-16 05:33N 34°27' E 135°07'1111.4
2014-Sep-16 04:33N 34°33' E 135°18'6 2.9
2014-Sep-16 02:18N 34°35' E 135°26'0 0.0
2014-Sep-16 01:30N 34°35' E 135°26'0 0.0
2014-Sep-15 23:18N 34°35' E 135°26'3 4.5
2014-Sep-15 22:33N 34°36' E 135°22'3 2.1
2014-Sep-15 21:17N 34°36' E 135°19'0 0.0
2014-Sep-15 20:30N 34°36' E 135°19'0 0.1
2014-Sep-15 19:32N 34°36' E 135°19'0 0.0
2014-Sep-15 18:32N 34°36' E 135°19'0 0.0
2014-Sep-15 17:26N 34°36' E 135°19'0 0.0
2014-Sep-15 16:32N 34°36' E 135°19'0 0.0
2014-Sep-15 15:27N 34°36' E 135°19'0 0.1
2014-Sep-15 14:32N 34°36' E 135°19'0 0.0
2014-Sep-15 13:21N 34°36' E 135°19'0 0.0
2014-Sep-15 12:20N 34°36' E 135°19'0 0.0
2014-Sep-15 11:32N 34°36' E 135°19'0 0.0
2014-Sep-15 10:26N 34°36' E 135°19'0 0.0
2014-Sep-15 09:33N 34°36' E 135°19'0 0.0
2014-Sep-15 08:32N 34°36' E 135°19'0 0.0
2014-Sep-15 07:20N 34°36' E 135°19'0 0.1
2014-Sep-15 06:33N 34°36' E 135°19'1211.7
2014-Sep-15 05:33N 34°35' E 135°04'10 9.6
2014-Sep-15 04:33N 34°34' E 134°53'  
2014-Sep-10 04:33N 34°36' E 134°56'9 8.9
2014-Sep-10 03:33N 34°36' E 135°06'1212.0
2014-Sep-10 02:34N 34°37' E 135°21'4 4.3
2014-Sep-10 01:30N 34°34' E 135°26'0 0.0
2014-Sep-10 00:24N 34°34' E 135°26'0 0.0
2014-Sep-09 23:30N 34°34' E 135°26'0 0.1
2014-Sep-09 22:31N 34°34' E 135°26'3 2.7
2014-Sep-09 21:33N 34°36' E 135°23'0 0.0
2014-Sep-09 20:15N 34°36' E 135°23'0 0.0
2014-Sep-09 19:33N 34°36' E 135°23'0 0.0
2014-Sep-09 18:21N 34°36' E 135°23'0 0.0
2014-Sep-09 17:03N 34°36' E 135°23'0 0.0
2014-Sep-09 16:27N 34°36' E 135°23'0 0.0
2014-Sep-09 15:34N 34°36' E 135°23'9 9.2
2014-Sep-09 14:33N 34°30' E 135°15'1111.0
2014-Sep-09 13:33N 34°22' E 135°05'1110.4
2014-Sep-09 12:33N 34°12' E 135°00'1212.1
2014-Sep-09 11:33N 34°00' E 135°02'  
Track history (hours):
 
Tides and Currents Weather Stations Pressure Air Temp Water Temp Dewpoint Dewpoint Depression Visibility Wind Speed Wind Dir Waves Ship Positions

Oval Lp No.11

Last reported at 2014-Sep-19 04:33 UTC. Time now 2014-Sep-19 05:51 UTC.
Position N 34°26' E 135°07'.

Length 67 m; draft 3.6 m.

Type: Ship (hazmat cat A). MMSI: 431500366.

Date/timePositionNaut miles runAvg speedWind from/ knotsBaromVisibWave heightAir tempDewpointWater temp
2014-Sep-19 04:33N 34°26' E 135°07'1312.6
2014-Sep-19 03:32N 34°34' E 135°20'5 2.2
2014-Sep-19 01:18N 34°34' E 135°26'0 0.0
2014-Sep-18 23:33N 34°34' E 135°26'7 7.3
2014-Sep-18 22:33N 34°32' E 135°17'1111.1
2014-Sep-18 21:33N 34°24' E 135°08'1110.5
2014-Sep-18 20:30N 34°15' E 134°60'1111.6
2014-Sep-18 19:32N 34°04' E 135°01'  
2014-Sep-16 08:16N 33°58' E 135°00'912.0
2014-Sep-16 07:33N 34°07' E 134°59'1211.5
2014-Sep-16 06:33N 34°18' E 134°58'1110.8
2014-Sep-16 05:33N 34°27' E 135°07'1111.4
2014-Sep-16 04:33N 34°33' E 135°18'6 2.9
2014-Sep-16 02:18N 34°35' E 135°26'0 0.0
2014-Sep-16 01:30N 34°35' E 135°26'0 0.0
2014-Sep-15 23:18N 34°35' E 135°26'3 4.5
2014-Sep-15 22:33N 34°36' E 135°22'3 2.1
2014-Sep-15 21:17N 34°36' E 135°19'0 0.0
2014-Sep-15 20:30N 34°36' E 135°19'0 0.1
2014-Sep-15 19:32N 34°36' E 135°19'0 0.0
2014-Sep-15 18:32N 34°36' E 135°19'0 0.0
2014-Sep-15 17:26N 34°36' E 135°19'0 0.0
2014-Sep-15 16:32N 34°36' E 135°19'0 0.0
2014-Sep-15 15:27N 34°36' E 135°19'0 0.1
2014-Sep-15 14:32N 34°36' E 135°19'0 0.0
2014-Sep-15 13:21N 34°36' E 135°19'0 0.0
2014-Sep-15 12:20N 34°36' E 135°19'0 0.0
2014-Sep-15 11:32N 34°36' E 135°19'0 0.0
2014-Sep-15 10:26N 34°36' E 135°19'0 0.0
2014-Sep-15 09:33N 34°36' E 135°19'0 0.0
2014-Sep-15 08:32N 34°36' E 135°19'0 0.0
2014-Sep-15 07:20N 34°36' E 135°19'0 0.1
2014-Sep-15 06:33N 34°36' E 135°19'1211.7
2014-Sep-15 05:33N 34°35' E 135°04'10 9.6
2014-Sep-15 04:33N 34°34' E 134°53'  
2014-Sep-10 04:33N 34°36' E 134°56'9 8.9
2014-Sep-10 03:33N 34°36' E 135°06'1212.0
2014-Sep-10 02:34N 34°37' E 135°21'4 4.3
2014-Sep-10 01:30N 34°34' E 135°26'0 0.0
2014-Sep-10 00:24N 34°34' E 135°26'0 0.0
2014-Sep-09 23:30N 34°34' E 135°26'0 0.1
2014-Sep-09 22:31N 34°34' E 135°26'3 2.7
2014-Sep-09 21:33N 34°36' E 135°23'0 0.0
2014-Sep-09 20:15N 34°36' E 135°23'0 0.0
2014-Sep-09 19:33N 34°36' E 135°23'0 0.0
2014-Sep-09 18:21N 34°36' E 135°23'0 0.0
2014-Sep-09 17:03N 34°36' E 135°23'0 0.0
2014-Sep-09 16:27N 34°36' E 135°23'0 0.0
2014-Sep-09 15:34N 34°36' E 135°23'9 9.2
2014-Sep-09 14:33N 34°30' E 135°15'1111.0
2014-Sep-09 13:33N 34°22' E 135°05'1110.4
2014-Sep-09 12:33N 34°12' E 135°00'1212.1
2014-Sep-09 11:33N 34°00' E 135°02'  

Dump ship's entire track history